sensor_id;sensor_type;location;lat;lon;timestamp;P1;durP1;ratioP1;P2;durP2;ratioP2
79664;SDS011;69132;44.014;20.918;2024-03-29T00:00:03;6.80;;;2.28;;
79664;SDS011;69132;44.014;20.918;2024-03-29T00:02:29;4.47;;;1.80;;
79664;SDS011;69132;44.014;20.918;2024-03-29T00:04:55;3.72;;;1.77;;
79664;SDS011;69132;44.014;20.918;2024-03-29T00:07:21;6.00;;;1.88;;
79664;SDS011;69132;44.014;20.918;2024-03-29T00:09:49;3.55;;;1.60;;
79664;SDS011;69132;44.014;20.918;2024-03-29T00:12:15;2.75;;;1.85;;
79664;SDS011;69132;44.014;20.918;2024-03-29T00:14:41;3.00;;;1.58;;
79664;SDS011;69132;44.014;20.918;2024-03-29T00:17:08;2.55;;;1.30;;
79664;SDS011;69132;44.014;20.918;2024-03-29T00:19:34;3.00;;;1.20;;
79664;SDS011;69132;44.014;20.918;2024-03-29T00:22:01;4.15;;;1.80;;
79664;SDS011;69132;44.014;20.918;2024-03-29T00:24:27;2.60;;;1.42;;
79664;SDS011;69132;44.014;20.918;2024-03-29T00:26:53;5.20;;;2.00;;
79664;SDS011;69132;44.014;20.918;2024-03-29T00:29:19;3.67;;;1.77;;
79664;SDS011;69132;44.014;20.918;2024-03-29T00:31:45;3.88;;;2.42;;
79664;SDS011;69132;44.014;20.918;2024-03-29T00:34:11;6.47;;;2.25;;
79664;SDS011;69132;44.014;20.918;2024-03-29T00:36:37;7.57;;;2.30;;
79664;SDS011;69132;44.014;20.918;2024-03-29T00:39:04;4.70;;;1.48;;
79664;SDS011;69132;44.014;20.918;2024-03-29T00:41:30;4.63;;;1.65;;
79664;SDS011;69132;44.014;20.918;2024-03-29T00:43:56;2.38;;;1.20;;
79664;SDS011;69132;44.014;20.918;2024-03-29T00:46:22;5.63;;;1.40;;
79664;SDS011;69132;44.014;20.918;2024-03-29T00:48:48;3.47;;;1.70;;
79664;SDS011;69132;44.014;20.918;2024-03-29T00:51:16;4.60;;;1.88;;
79664;SDS011;69132;44.014;20.918;2024-03-29T00:53:42;4.60;;;2.13;;
79664;SDS011;69132;44.014;20.918;2024-03-29T00:56:08;2.80;;;1.70;;
79664;SDS011;69132;44.014;20.918;2024-03-29T00:58:34;4.57;;;1.83;;
79664;SDS011;69132;44.014;20.918;2024-03-29T01:01:01;3.72;;;1.70;;
79664;SDS011;69132;44.014;20.918;2024-03-29T01:03:28;3.78;;;1.67;;
79664;SDS011;69132;44.014;20.918;2024-03-29T01:05:56;3.53;;;1.52;;
79664;SDS011;69132;44.014;20.918;2024-03-29T01:08:22;3.00;;;1.55;;
79664;SDS011;69132;44.014;20.918;2024-03-29T01:10:50;3.83;;;1.92;;
79664;SDS011;69132;44.014;20.918;2024-03-29T01:13:16;6.25;;;2.33;;
79664;SDS011;69132;44.014;20.918;2024-03-29T01:15:43;4.50;;;2.35;;
79664;SDS011;69132;44.014;20.918;2024-03-29T01:18:09;6.75;;;2.88;;
79664;SDS011;69132;44.014;20.918;2024-03-29T01:20:36;6.10;;;2.80;;
79664;SDS011;69132;44.014;20.918;2024-03-29T01:23:02;5.60;;;2.03;;
79664;SDS011;69132;44.014;20.918;2024-03-29T01:25:28;4.20;;;1.80;;
79664;SDS011;69132;44.014;20.918;2024-03-29T01:27:55;5.38;;;2.10;;
79664;SDS011;69132;44.014;20.918;2024-03-29T01:30:22;4.00;;;1.63;;
79664;SDS011;69132;44.014;20.918;2024-03-29T01:32:49;3.17;;;1.63;;
79664;SDS011;69132;44.014;20.918;2024-03-29T01:35:15;4.88;;;1.50;;
79664;SDS011;69132;44.014;20.918;2024-03-29T01:37:42;3.00;;;1.52;;
79664;SDS011;69132;44.014;20.918;2024-03-29T01:40:08;12.57;;;3.45;;
79664;SDS011;69132;44.014;20.918;2024-03-29T01:42:35;4.60;;;1.50;;
79664;SDS011;69132;44.014;20.918;2024-03-29T01:45:01;3.50;;;2.00;;
79664;SDS011;69132;44.014;20.918;2024-03-29T01:47:28;3.10;;;1.55;;
79664;SDS011;69132;44.014;20.918;2024-03-29T01:49:54;4.28;;;1.70;;
79664;SDS011;69132;44.014;20.918;2024-03-29T01:52:20;3.45;;;1.75;;
79664;SDS011;69132;44.014;20.918;2024-03-29T01:54:47;3.75;;;1.70;;
79664;SDS011;69132;44.014;20.918;2024-03-29T01:57:15;4.75;;;2.30;;
79664;SDS011;69132;44.014;20.918;2024-03-29T01:59:42;5.15;;;1.67;;
79664;SDS011;69132;44.014;20.918;2024-03-29T02:02:10;3.70;;;1.70;;
79664;SDS011;69132;44.014;20.918;2024-03-29T02:04:38;4.22;;;1.50;;
79664;SDS011;69132;44.014;20.918;2024-03-29T02:07:04;4.78;;;1.85;;
79664;SDS011;69132;44.014;20.918;2024-03-29T02:09:31;4.85;;;2.10;;
79664;SDS011;69132;44.014;20.918;2024-03-29T02:11:57;3.90;;;1.40;;
79664;SDS011;69132;44.014;20.918;2024-03-29T02:14:23;3.90;;;1.48;;
79664;SDS011;69132;44.014;20.918;2024-03-29T02:16:49;4.07;;;1.35;;
79664;SDS011;69132;44.014;20.918;2024-03-29T02:19:15;3.83;;;1.40;;
79664;SDS011;69132;44.014;20.918;2024-03-29T02:21:43;6.22;;;1.33;;
79664;SDS011;69132;44.014;20.918;2024-03-29T02:24:12;3.08;;;1.35;;
79664;SDS011;69132;44.014;20.918;2024-03-29T02:26:41;2.28;;;1.60;;
79664;SDS011;69132;44.014;20.918;2024-03-29T02:29:08;2.95;;;1.40;;
79664;SDS011;69132;44.014;20.918;2024-03-29T02:31:34;2.53;;;1.48;;
79664;SDS011;69132;44.014;20.918;2024-03-29T02:34:01;3.50;;;1.80;;
79664;SDS011;69132;44.014;20.918;2024-03-29T02:36:28;5.82;;;2.30;;
79664;SDS011;69132;44.014;20.918;2024-03-29T02:38:54;3.35;;;1.73;;
79664;SDS011;69132;44.014;20.918;2024-03-29T02:41:21;4.38;;;1.83;;
79664;SDS011;69132;44.014;20.918;2024-03-29T02:43:47;4.03;;;1.80;;
79664;SDS011;69132;44.014;20.918;2024-03-29T02:46:13;8.05;;;1.70;;
79664;SDS011;69132;44.014;20.918;2024-03-29T02:48:39;4.95;;;2.30;;
79664;SDS011;69132;44.014;20.918;2024-03-29T02:51:07;8.00;;;2.00;;
79664;SDS011;69132;44.014;20.918;2024-03-29T02:53:35;6.93;;;1.90;;
79664;SDS011;69132;44.014;20.918;2024-03-29T02:56:06;4.03;;;1.92;;
79664;SDS011;69132;44.014;20.918;2024-03-29T02:58:33;5.13;;;2.10;;
79664;SDS011;69132;44.014;20.918;2024-03-29T03:01:04;8.85;;;3.47;;
79664;SDS011;69132;44.014;20.918;2024-03-29T03:03:39;6.18;;;2.80;;
79664;SDS011;69132;44.014;20.918;2024-03-29T03:06:05;6.30;;;3.03;;
79664;SDS011;69132;44.014;20.918;2024-03-29T03:08:31;7.55;;;3.17;;
79664;SDS011;69132;44.014;20.918;2024-03-29T03:11:17;8.50;;;3.00;;
79664;SDS011;69132;44.014;20.918;2024-03-29T03:13:43;8.15;;;3.05;;
79664;SDS011;69132;44.014;20.918;2024-03-29T03:16:10;4.88;;;2.88;;
79664;SDS011;69132;44.014;20.918;2024-03-29T03:18:36;7.35;;;2.65;;
79664;SDS011;69132;44.014;20.918;2024-03-29T03:21:02;5.78;;;3.05;;
79664;SDS011;69132;44.014;20.918;2024-03-29T03:23:29;6.72;;;2.72;;
79664;SDS011;69132;44.014;20.918;2024-03-29T03:26:04;7.57;;;3.08;;
79664;SDS011;69132;44.014;20.918;2024-03-29T03:28:31;6.47;;;3.38;;
79664;SDS011;69132;44.014;20.918;2024-03-29T03:30:57;5.07;;;2.85;;
79664;SDS011;69132;44.014;20.918;2024-03-29T03:33:23;6.80;;;2.95;;
79664;SDS011;69132;44.014;20.918;2024-03-29T03:35:49;7.50;;;2.80;;
79664;SDS011;69132;44.014;20.918;2024-03-29T03:38:15;6.72;;;3.20;;
79664;SDS011;69132;44.014;20.918;2024-03-29T03:40:41;7.15;;;2.75;;
79664;SDS011;69132;44.014;20.918;2024-03-29T03:43:08;8.15;;;3.30;;
79664;SDS011;69132;44.014;20.918;2024-03-29T03:45:38;6.40;;;2.50;;
79664;SDS011;69132;44.014;20.918;2024-03-29T03:48:05;7.60;;;2.88;;
79664;SDS011;69132;44.014;20.918;2024-03-29T03:50:31;4.68;;;2.58;;
79664;SDS011;69132;44.014;20.918;2024-03-29T03:52:58;7.68;;;3.40;;
79664;SDS011;69132;44.014;20.918;2024-03-29T03:55:24;6.22;;;2.80;;
79664;SDS011;69132;44.014;20.918;2024-03-29T03:57:52;6.28;;;2.60;;
79664;SDS011;69132;44.014;20.918;2024-03-29T04:00:19;6.45;;;2.55;;
79664;SDS011;69132;44.014;20.918;2024-03-29T04:02:48;7.22;;;3.33;;
79664;SDS011;69132;44.014;20.918;2024-03-29T04:05:19;7.70;;;3.20;;
79664;SDS011;69132;44.014;20.918;2024-03-29T04:07:45;11.20;;;3.42;;
79664;SDS011;69132;44.014;20.918;2024-03-29T04:10:12;13.60;;;3.92;;
79664;SDS011;69132;44.014;20.918;2024-03-29T04:12:42;9.25;;;4.20;;
79664;SDS011;69132;44.014;20.918;2024-03-29T04:15:08;11.85;;;4.40;;
79664;SDS011;69132;44.014;20.918;2024-03-29T04:17:35;10.10;;;3.03;;
79664;SDS011;69132;44.014;20.918;2024-03-29T04:20:05;6.88;;;2.88;;
79664;SDS011;69132;44.014;20.918;2024-03-29T04:22:32;5.95;;;2.80;;
79664;SDS011;69132;44.014;20.918;2024-03-29T04:24:59;7.68;;;3.15;;
79664;SDS011;69132;44.014;20.918;2024-03-29T04:27:27;9.73;;;3.33;;
79664;SDS011;69132;44.014;20.918;2024-03-29T04:29:53;7.45;;;3.20;;
79664;SDS011;69132;44.014;20.918;2024-03-29T04:32:19;7.68;;;3.10;;
79664;SDS011;69132;44.014;20.918;2024-03-29T04:34:50;6.43;;;2.67;;
79664;SDS011;69132;44.014;20.918;2024-03-29T04:37:17;8.00;;;2.70;;
79664;SDS011;69132;44.014;20.918;2024-03-29T04:39:43;9.52;;;3.58;;
79664;SDS011;69132;44.014;20.918;2024-03-29T04:42:11;14.45;;;4.10;;
79664;SDS011;69132;44.014;20.918;2024-03-29T04:44:37;18.00;;;5.60;;
79664;SDS011;69132;44.014;20.918;2024-03-29T04:47:05;12.57;;;4.07;;
79664;SDS011;69132;44.014;20.918;2024-03-29T04:49:31;16.23;;;4.90;;
79664;SDS011;69132;44.014;20.918;2024-03-29T04:52:04;20.48;;;5.10;;
79664;SDS011;69132;44.014;20.918;2024-03-29T04:54:31;15.77;;;5.15;;
79664;SDS011;69132;44.014;20.918;2024-03-29T04:56:57;11.45;;;3.53;;
79664;SDS011;69132;44.014;20.918;2024-03-29T04:59:25;14.60;;;4.20;;
79664;SDS011;69132;44.014;20.918;2024-03-29T05:01:51;39.50;;;6.88;;
79664;SDS011;69132;44.014;20.918;2024-03-29T05:04:21;18.45;;;4.45;;
79664;SDS011;69132;44.014;20.918;2024-03-29T05:06:54;10.52;;;4.38;;
79664;SDS011;69132;44.014;20.918;2024-03-29T05:09:21;13.73;;;4.00;;
79664;SDS011;69132;44.014;20.918;2024-03-29T05:11:47;11.02;;;4.60;;
79664;SDS011;69132;44.014;20.918;2024-03-29T05:14:15;14.73;;;5.35;;
79664;SDS011;69132;44.014;20.918;2024-03-29T05:16:45;16.50;;;5.80;;
79664;SDS011;69132;44.014;20.918;2024-03-29T05:19:12;32.67;;;7.05;;
79664;SDS011;69132;44.014;20.918;2024-03-29T05:21:38;13.55;;;6.72;;
79664;SDS011;69132;44.014;20.918;2024-03-29T05:24:05;12.90;;;5.10;;
79664;SDS011;69132;44.014;20.918;2024-03-29T05:26:31;11.23;;;4.72;;
79664;SDS011;69132;44.014;20.918;2024-03-29T05:28:58;11.00;;;6.30;;
79664;SDS011;69132;44.014;20.918;2024-03-29T05:31:25;16.92;;;5.97;;
79664;SDS011;69132;44.014;20.918;2024-03-29T05:33:51;16.88;;;7.15;;
79664;SDS011;69132;44.014;20.918;2024-03-29T05:36:18;17.08;;;8.02;;
79664;SDS011;69132;44.014;20.918;2024-03-29T05:38:45;20.55;;;10.98;;
79664;SDS011;69132;44.014;20.918;2024-03-29T05:41:11;16.60;;;8.23;;
79664;SDS011;69132;44.014;20.918;2024-03-29T05:43:40;14.98;;;4.93;;
79664;SDS011;69132;44.014;20.918;2024-03-29T05:46:06;10.35;;;3.67;;
79664;SDS011;69132;44.014;20.918;2024-03-29T05:48:34;12.88;;;4.70;;
79664;SDS011;69132;44.014;20.918;2024-03-29T05:51:00;10.27;;;4.30;;
79664;SDS011;69132;44.014;20.918;2024-03-29T05:53:26;14.23;;;4.65;;
79664;SDS011;69132;44.014;20.918;2024-03-29T05:55:52;11.38;;;3.80;;
79664;SDS011;69132;44.014;20.918;2024-03-29T05:58:18;9.63;;;3.65;;
79664;SDS011;69132;44.014;20.918;2024-03-29T06:00:46;11.30;;;3.30;;
79664;SDS011;69132;44.014;20.918;2024-03-29T06:03:12;10.52;;;3.50;;
79664;SDS011;69132;44.014;20.918;2024-03-29T06:05:39;12.38;;;3.80;;
79664;SDS011;69132;44.014;20.918;2024-03-29T06:08:06;15.35;;;3.78;;
79664;SDS011;69132;44.014;20.918;2024-03-29T06:10:37;7.68;;;3.50;;
79664;SDS011;69132;44.014;20.918;2024-03-29T06:13:04;7.15;;;2.83;;
79664;SDS011;69132;44.014;20.918;2024-03-29T06:15:35;12.93;;;4.32;;
79664;SDS011;69132;44.014;20.918;2024-03-29T06:18:21;16.20;;;4.63;;
79664;SDS011;69132;44.014;20.918;2024-03-29T06:20:47;23.10;;;6.47;;
79664;SDS011;69132;44.014;20.918;2024-03-29T06:23:16;21.13;;;5.45;;
79664;SDS011;69132;44.014;20.918;2024-03-29T06:25:43;9.00;;;3.00;;
79664;SDS011;69132;44.014;20.918;2024-03-29T06:28:09;8.55;;;2.30;;
79664;SDS011;69132;44.014;20.918;2024-03-29T06:30:36;7.95;;;2.80;;
79664;SDS011;69132;44.014;20.918;2024-03-29T06:33:02;11.07;;;2.58;;
79664;SDS011;69132;44.014;20.918;2024-03-29T06:35:28;8.60;;;2.60;;
79664;SDS011;69132;44.014;20.918;2024-03-29T06:37:56;6.53;;;2.92;;
79664;SDS011;69132;44.014;20.918;2024-03-29T06:40:23;12.88;;;3.67;;
79664;SDS011;69132;44.014;20.918;2024-03-29T06:42:50;7.55;;;2.08;;
79664;SDS011;69132;44.014;20.918;2024-03-29T06:45:17;9.38;;;2.67;;
79664;SDS011;69132;44.014;20.918;2024-03-29T06:47:44;9.25;;;3.10;;
79664;SDS011;69132;44.014;20.918;2024-03-29T06:50:10;10.80;;;2.88;;
79664;SDS011;69132;44.014;20.918;2024-03-29T06:52:36;8.48;;;2.88;;
79664;SDS011;69132;44.014;20.918;2024-03-29T06:55:03;6.07;;;1.58;;
79664;SDS011;69132;44.014;20.918;2024-03-29T06:57:29;4.65;;;1.13;;
79664;SDS011;69132;44.014;20.918;2024-03-29T06:59:57;4.40;;;2.08;;
79664;SDS011;69132;44.014;20.918;2024-03-29T07:02:23;5.13;;;1.85;;
79664;SDS011;69132;44.014;20.918;2024-03-29T07:04:50;14.63;;;3.22;;
79664;SDS011;69132;44.014;20.918;2024-03-29T07:07:16;6.93;;;2.05;;
79664;SDS011;69132;44.014;20.918;2024-03-29T07:09:42;3.65;;;1.40;;
79664;SDS011;69132;44.014;20.918;2024-03-29T07:12:08;5.53;;;1.83;;
79664;SDS011;69132;44.014;20.918;2024-03-29T07:14:35;5.32;;;2.00;;
79664;SDS011;69132;44.014;20.918;2024-03-29T07:17:01;10.23;;;2.08;;
79664;SDS011;69132;44.014;20.918;2024-03-29T07:19:28;5.38;;;1.65;;
79664;SDS011;69132;44.014;20.918;2024-03-29T07:21:59;3.65;;;1.50;;
79664;SDS011;69132;44.014;20.918;2024-03-29T07:24:25;5.28;;;1.92;;
79664;SDS011;69132;44.014;20.918;2024-03-29T07:26:52;4.50;;;1.75;;
79664;SDS011;69132;44.014;20.918;2024-03-29T07:29:18;5.75;;;2.40;;
79664;SDS011;69132;44.014;20.918;2024-03-29T07:31:46;3.90;;;1.90;;
79664;SDS011;69132;44.014;20.918;2024-03-29T07:34:12;5.22;;;2.00;;
79664;SDS011;69132;44.014;20.918;2024-03-29T07:36:38;9.20;;;2.45;;
79664;SDS011;69132;44.014;20.918;2024-03-29T07:39:06;7.03;;;1.95;;
79664;SDS011;69132;44.014;20.918;2024-03-29T07:41:33;5.23;;;1.73;;
79664;SDS011;69132;44.014;20.918;2024-03-29T07:43:59;5.90;;;1.85;;
79664;SDS011;69132;44.014;20.918;2024-03-29T07:46:27;7.30;;;1.92;;
79664;SDS011;69132;44.014;20.918;2024-03-29T07:49:00;7.85;;;2.30;;
79664;SDS011;69132;44.014;20.918;2024-03-29T07:51:26;7.82;;;1.83;;
79664;SDS011;69132;44.014;20.918;2024-03-29T07:53:52;6.07;;;1.95;;
79664;SDS011;69132;44.014;20.918;2024-03-29T07:56:18;4.68;;;2.20;;
79664;SDS011;69132;44.014;20.918;2024-03-29T07:58:46;7.47;;;1.98;;
79664;SDS011;69132;44.014;20.918;2024-03-29T08:01:23;12.25;;;2.10;;
79664;SDS011;69132;44.014;20.918;2024-03-29T08:03:52;5.00;;;1.73;;
79664;SDS011;69132;44.014;20.918;2024-03-29T08:06:18;5.63;;;1.80;;
79664;SDS011;69132;44.014;20.918;2024-03-29T08:08:45;4.38;;;2.03;;
79664;SDS011;69132;44.014;20.918;2024-03-29T08:11:11;4.63;;;1.70;;
79664;SDS011;69132;44.014;20.918;2024-03-29T08:13:38;5.60;;;1.92;;
79664;SDS011;69132;44.014;20.918;2024-03-29T08:16:05;6.10;;;2.75;;
79664;SDS011;69132;44.014;20.918;2024-03-29T08:18:32;5.38;;;2.30;;
79664;SDS011;69132;44.014;20.918;2024-03-29T08:21:02;8.50;;;2.22;;
79664;SDS011;69132;44.014;20.918;2024-03-29T08:25:56;7.00;;;1.80;;
79664;SDS011;69132;44.014;20.918;2024-03-29T08:28:22;7.90;;;2.70;;
79664;SDS011;69132;44.014;20.918;2024-03-29T08:31:01;9.50;;;2.83;;
79664;SDS011;69132;44.014;20.918;2024-03-29T08:33:27;7.53;;;2.45;;
79664;SDS011;69132;44.014;20.918;2024-03-29T08:35:56;5.43;;;1.90;;
79664;SDS011;69132;44.014;20.918;2024-03-29T08:38:23;5.60;;;2.22;;
79664;SDS011;69132;44.014;20.918;2024-03-29T08:40:50;5.47;;;2.22;;
79664;SDS011;69132;44.014;20.918;2024-03-29T08:43:17;5.40;;;2.03;;
79664;SDS011;69132;44.014;20.918;2024-03-29T08:45:44;3.70;;;1.90;;
79664;SDS011;69132;44.014;20.918;2024-03-29T08:48:10;5.55;;;2.28;;
79664;SDS011;69132;44.014;20.918;2024-03-29T08:50:36;5.85;;;2.13;;
79664;SDS011;69132;44.014;20.918;2024-03-29T08:53:02;6.20;;;1.90;;
79664;SDS011;69132;44.014;20.918;2024-03-29T08:55:29;5.72;;;2.30;;
79664;SDS011;69132;44.014;20.918;2024-03-29T08:57:56;7.13;;;2.45;;
79664;SDS011;69132;44.014;20.918;2024-03-29T09:00:23;8.23;;;1.90;;
79664;SDS011;69132;44.014;20.918;2024-03-29T09:02:49;4.75;;;2.03;;
79664;SDS011;69132;44.014;20.918;2024-03-29T09:05:15;7.15;;;2.45;;
79664;SDS011;69132;44.014;20.918;2024-03-29T09:07:41;5.85;;;1.85;;
79664;SDS011;69132;44.014;20.918;2024-03-29T09:10:07;6.18;;;1.85;;
79664;SDS011;69132;44.014;20.918;2024-03-29T09:12:34;7.30;;;1.85;;
79664;SDS011;69132;44.014;20.918;2024-03-29T09:15:00;7.22;;;3.72;;
79664;SDS011;69132;44.014;20.918;2024-03-29T09:17:26;5.32;;;2.00;;
79664;SDS011;69132;44.014;20.918;2024-03-29T09:19:52;7.15;;;1.90;;
79664;SDS011;69132;44.014;20.918;2024-03-29T09:22:19;7.32;;;2.13;;
79664;SDS011;69132;44.014;20.918;2024-03-29T09:24:45;4.95;;;2.47;;
79664;SDS011;69132;44.014;20.918;2024-03-29T09:27:12;6.97;;;1.90;;
79664;SDS011;69132;44.014;20.918;2024-03-29T09:29:38;5.03;;;2.00;;
79664;SDS011;69132;44.014;20.918;2024-03-29T09:32:04;6.00;;;1.95;;
79664;SDS011;69132;44.014;20.918;2024-03-29T09:34:30;6.35;;;1.35;;
79664;SDS011;69132;44.014;20.918;2024-03-29T09:36:56;5.45;;;1.80;;
79664;SDS011;69132;44.014;20.918;2024-03-29T09:39:23;6.53;;;1.73;;
79664;SDS011;69132;44.014;20.918;2024-03-29T09:41:49;5.75;;;1.95;;
79664;SDS011;69132;44.014;20.918;2024-03-29T09:44:16;6.90;;;1.70;;
79664;SDS011;69132;44.014;20.918;2024-03-29T09:46:46;3.75;;;1.42;;
79664;SDS011;69132;44.014;20.918;2024-03-29T09:49:12;8.88;;;2.13;;
79664;SDS011;69132;44.014;20.918;2024-03-29T09:51:39;8.98;;;2.20;;
79664;SDS011;69132;44.014;20.918;2024-03-29T09:54:09;5.68;;;1.80;;
79664;SDS011;69132;44.014;20.918;2024-03-29T09:56:38;6.90;;;2.35;;
79664;SDS011;69132;44.014;20.918;2024-03-29T09:59:06;7.35;;;1.90;;
79664;SDS011;69132;44.014;20.918;2024-03-29T10:01:32;7.53;;;1.58;;
79664;SDS011;69132;44.014;20.918;2024-03-29T10:03:58;6.97;;;1.50;;
79664;SDS011;69132;44.014;20.918;2024-03-29T10:06:25;4.10;;;1.52;;
79664;SDS011;69132;44.014;20.918;2024-03-29T10:08:52;8.55;;;2.38;;
79664;SDS011;69132;44.014;20.918;2024-03-29T10:11:24;11.02;;;2.50;;
79664;SDS011;69132;44.014;20.918;2024-03-29T10:13:50;5.10;;;1.48;;
79664;SDS011;69132;44.014;20.918;2024-03-29T10:16:19;5.05;;;1.88;;
79664;SDS011;69132;44.014;20.918;2024-03-29T10:18:47;5.68;;;1.75;;
79664;SDS011;69132;44.014;20.918;2024-03-29T10:21:14;8.73;;;2.23;;
79664;SDS011;69132;44.014;20.918;2024-03-29T10:23:40;7.35;;;1.90;;
79664;SDS011;69132;44.014;20.918;2024-03-29T10:26:08;7.27;;;2.83;;
79664;SDS011;69132;44.014;20.918;2024-03-29T10:28:36;3.97;;;1.52;;
79664;SDS011;69132;44.014;20.918;2024-03-29T10:31:03;3.67;;;1.58;;
79664;SDS011;69132;44.014;20.918;2024-03-29T10:33:30;4.68;;;2.60;;
79664;SDS011;69132;44.014;20.918;2024-03-29T10:35:58;6.77;;;1.90;;
79664;SDS011;69132;44.014;20.918;2024-03-29T10:38:25;7.85;;;2.08;;
79664;SDS011;69132;44.014;20.918;2024-03-29T10:40:52;4.80;;;1.98;;
79664;SDS011;69132;44.014;20.918;2024-03-29T10:43:19;6.78;;;1.38;;
79664;SDS011;69132;44.014;20.918;2024-03-29T10:45:46;6.50;;;2.45;;
79664;SDS011;69132;44.014;20.918;2024-03-29T10:48:20;5.05;;;1.25;;
79664;SDS011;69132;44.014;20.918;2024-03-29T10:50:50;4.03;;;2.05;;
79664;SDS011;69132;44.014;20.918;2024-03-29T10:53:18;3.70;;;1.77;;
79664;SDS011;69132;44.014;20.918;2024-03-29T10:55:44;4.65;;;1.60;;
79664;SDS011;69132;44.014;20.918;2024-03-29T10:58:11;8.95;;;1.63;;
79664;SDS011;69132;44.014;20.918;2024-03-29T11:00:41;4.88;;;1.92;;
79664;SDS011;69132;44.014;20.918;2024-03-29T11:05:44;9.32;;;2.00;;
79664;SDS011;69132;44.014;20.918;2024-03-29T11:08:13;3.88;;;1.70;;
79664;SDS011;69132;44.014;20.918;2024-03-29T11:10:40;9.60;;;2.22;;
79664;SDS011;69132;44.014;20.918;2024-03-29T11:15:55;3.63;;;1.42;;
79664;SDS011;69132;44.014;20.918;2024-03-29T11:18:21;5.90;;;1.60;;
79664;SDS011;69132;44.014;20.918;2024-03-29T11:20:49;4.63;;;1.67;;
79664;SDS011;69132;44.014;20.918;2024-03-29T11:23:27;7.97;;;2.13;;
79664;SDS011;69132;44.014;20.918;2024-03-29T11:25:54;4.05;;;1.40;;
79664;SDS011;69132;44.014;20.918;2024-03-29T11:28:26;7.13;;;1.95;;
79664;SDS011;69132;44.014;20.918;2024-03-29T11:30:57;4.55;;;1.50;;
79664;SDS011;69132;44.014;20.918;2024-03-29T11:33:28;8.88;;;2.00;;
79664;SDS011;69132;44.014;20.918;2024-03-29T11:35:55;4.82;;;1.60;;
79664;SDS011;69132;44.014;20.918;2024-03-29T11:43:34;9.38;;;2.85;;
79664;SDS011;69132;44.014;20.918;2024-03-29T11:46:01;9.88;;;3.05;;
79664;SDS011;69132;44.014;20.918;2024-03-29T11:48:30;7.38;;;2.50;;
79664;SDS011;69132;44.014;20.918;2024-03-29T11:50:56;5.00;;;2.08;;
79664;SDS011;69132;44.014;20.918;2024-03-29T11:53:23;9.45;;;4.57;;
79664;SDS011;69132;44.014;20.918;2024-03-29T11:55:53;10.07;;;4.80;;
79664;SDS011;69132;44.014;20.918;2024-03-29T11:58:20;3.83;;;1.52;;
79664;SDS011;69132;44.014;20.918;2024-03-29T12:00:46;5.53;;;1.90;;
79664;SDS011;69132;44.014;20.918;2024-03-29T12:03:17;4.38;;;1.73;;
79664;SDS011;69132;44.014;20.918;2024-03-29T12:05:44;10.05;;;2.88;;
79664;SDS011;69132;44.014;20.918;2024-03-29T12:08:11;9.90;;;3.00;;
79664;SDS011;69132;44.014;20.918;2024-03-29T12:13:11;2.70;;;1.55;;
79664;SDS011;69132;44.014;20.918;2024-03-29T12:15:40;4.97;;;1.38;;
79664;SDS011;69132;44.014;20.918;2024-03-29T12:18:06;7.38;;;1.70;;
79664;SDS011;69132;44.014;20.918;2024-03-29T12:20:32;4.90;;;1.70;;
79664;SDS011;69132;44.014;20.918;2024-03-29T12:23:00;3.72;;;1.65;;
79664;SDS011;69132;44.014;20.918;2024-03-29T12:25:28;3.47;;;1.98;;
79664;SDS011;69132;44.014;20.918;2024-03-29T12:27:54;6.15;;;2.72;;
79664;SDS011;69132;44.014;20.918;2024-03-29T12:30:21;3.70;;;1.50;;
79664;SDS011;69132;44.014;20.918;2024-03-29T12:32:47;6.22;;;1.42;;
79664;SDS011;69132;44.014;20.918;2024-03-29T12:35:15;7.53;;;1.70;;
79664;SDS011;69132;44.014;20.918;2024-03-29T12:37:48;12.30;;;3.03;;
79664;SDS011;69132;44.014;20.918;2024-03-29T12:40:15;11.90;;;2.92;;
79664;SDS011;69132;44.014;20.918;2024-03-29T12:42:47;5.03;;;1.60;;
79664;SDS011;69132;44.014;20.918;2024-03-29T12:45:13;7.90;;;3.85;;
79664;SDS011;69132;44.014;20.918;2024-03-29T12:47:40;5.72;;;1.50;;
79664;SDS011;69132;44.014;20.918;2024-03-29T12:50:09;5.65;;;1.63;;
79664;SDS011;69132;44.014;20.918;2024-03-29T12:52:39;5.55;;;1.55;;
79664;SDS011;69132;44.014;20.918;2024-03-29T12:55:08;6.45;;;1.58;;
79664;SDS011;69132;44.014;20.918;2024-03-29T12:57:35;9.70;;;2.50;;
79664;SDS011;69132;44.014;20.918;2024-03-29T13:00:04;8.93;;;2.83;;
79664;SDS011;69132;44.014;20.918;2024-03-29T13:02:34;6.03;;;1.77;;
79664;SDS011;69132;44.014;20.918;2024-03-29T13:05:05;5.60;;;2.33;;
79664;SDS011;69132;44.014;20.918;2024-03-29T13:07:33;9.43;;;2.47;;
79664;SDS011;69132;44.014;20.918;2024-03-29T13:10:00;5.07;;;2.00;;
79664;SDS011;69132;44.014;20.918;2024-03-29T13:12:41;8.15;;;1.95;;
79664;SDS011;69132;44.014;20.918;2024-03-29T13:15:25;3.90;;;1.30;;
79664;SDS011;69132;44.014;20.918;2024-03-29T13:17:52;4.15;;;1.40;;
79664;SDS011;69132;44.014;20.918;2024-03-29T13:20:20;7.70;;;1.70;;
79664;SDS011;69132;44.014;20.918;2024-03-29T13:22:47;6.65;;;2.15;;
79664;SDS011;69132;44.014;20.918;2024-03-29T13:27:41;8.40;;;2.08;;
79664;SDS011;69132;44.014;20.918;2024-03-29T13:30:08;6.03;;;1.40;;
79664;SDS011;69132;44.014;20.918;2024-03-29T13:32:40;6.88;;;1.70;;
79664;SDS011;69132;44.014;20.918;2024-03-29T13:35:07;9.50;;;1.95;;
79664;SDS011;69132;44.014;20.918;2024-03-29T13:37:37;6.68;;;1.67;;
79664;SDS011;69132;44.014;20.918;2024-03-29T13:40:03;5.63;;;1.88;;
79664;SDS011;69132;44.014;20.918;2024-03-29T13:42:44;6.47;;;1.83;;
79664;SDS011;69132;44.014;20.918;2024-03-29T13:45:14;4.53;;;1.80;;
79664;SDS011;69132;44.014;20.918;2024-03-29T13:47:40;6.90;;;1.63;;
79664;SDS011;69132;44.014;20.918;2024-03-29T13:50:07;5.00;;;1.83;;
79664;SDS011;69132;44.014;20.918;2024-03-29T13:52:33;7.40;;;1.38;;
79664;SDS011;69132;44.014;20.918;2024-03-29T13:55:00;8.93;;;1.98;;
79664;SDS011;69132;44.014;20.918;2024-03-29T13:59:54;9.45;;;1.80;;
79664;SDS011;69132;44.014;20.918;2024-03-29T14:02:20;4.70;;;1.90;;
79664;SDS011;69132;44.014;20.918;2024-03-29T14:04:49;6.22;;;1.40;;
79664;SDS011;69132;44.014;20.918;2024-03-29T14:07:15;7.20;;;1.80;;
79664;SDS011;69132;44.014;20.918;2024-03-29T14:09:46;5.38;;;1.63;;
79664;SDS011;69132;44.014;20.918;2024-03-29T14:12:12;6.30;;;1.95;;
79664;SDS011;69132;44.014;20.918;2024-03-29T14:14:39;9.00;;;1.98;;
79664;SDS011;69132;44.014;20.918;2024-03-29T14:17:12;5.40;;;1.70;;
79664;SDS011;69132;44.014;20.918;2024-03-29T14:19:38;6.05;;;1.55;;
79664;SDS011;69132;44.014;20.918;2024-03-29T14:22:05;5.78;;;2.00;;
79664;SDS011;69132;44.014;20.918;2024-03-29T14:24:37;7.00;;;2.88;;
79664;SDS011;69132;44.014;20.918;2024-03-29T14:27:04;7.70;;;2.38;;
79664;SDS011;69132;44.014;20.918;2024-03-29T14:29:32;6.68;;;2.92;;
79664;SDS011;69132;44.014;20.918;2024-03-29T14:31:58;9.18;;;2.60;;
79664;SDS011;69132;44.014;20.918;2024-03-29T14:34:31;6.80;;;3.47;;
79664;SDS011;69132;44.014;20.918;2024-03-29T14:37:02;5.10;;;1.55;;
79664;SDS011;69132;44.014;20.918;2024-03-29T14:39:28;3.78;;;1.38;;
79664;SDS011;69132;44.014;20.918;2024-03-29T14:41:55;8.52;;;2.47;;
79664;SDS011;69132;44.014;20.918;2024-03-29T14:44:23;9.73;;;3.75;;
79664;SDS011;69132;44.014;20.918;2024-03-29T14:46:49;8.73;;;2.63;;
79664;SDS011;69132;44.014;20.918;2024-03-29T14:49:15;6.90;;;1.70;;
79664;SDS011;69132;44.014;20.918;2024-03-29T14:51:42;10.88;;;2.00;;
79664;SDS011;69132;44.014;20.918;2024-03-29T14:54:09;7.63;;;2.20;;